Flight Track Log - Related Links

Times and Time Zones

All times are in EDT time to prevent confusion due to time zone crossing. See the UAL335 flight status page for this flight to view local times or setup timezone preferences in your user account.

Time Position Orientation Groundspeed Altitude Reporting Facility
EDT Latitude Longitude Course Direction KTS MPH feet Rate Location/Type
Wed 06:19:25 PM 27.9833 -82.5333 355° North 160 184 600  Level Tampa TRACON
Wed 06:21:02 PM 28.0833 -82.5333 360° North 230 265 3,400 2,077 Climbing Tampa TRACON
Wed 06:22:00 PM 28.3130 -82.5667 North  Level FlightAware Approximate
Wed 06:22:27 PM 28.1703 -82.5511 350° North 271 312 6,900  Level Jacksonville Center
Wed 06:23:00 PM 28.4303 -82.5714 355° North  Level FlightAware Approximate
Wed 06:23:27 PM 28.2517 -82.5628 353° North 276 318 9,500  Level Jacksonville Center
Wed 06:24:00 PM 28.5473 -82.5831 355° North  Level FlightAware Approximate
Wed 06:24:27 PM 28.3353 -82.5767 352° North 295 339 11,700  Level Jacksonville Center
Wed 06:25:27 PM 28.4292 -82.6000 348° North 317 365 13,100 1,850 Climbing Jacksonville Center
Wed 06:26:27 PM 28.5317 -82.6278 347° North 348 400 15,400 2,100 Climbing Jacksonville Center
Wed 06:27:27 PM 28.6381 -82.6325 358° North 372 428 17,300 1,650 Climbing Jacksonville Center
Wed 06:28:27 PM 28.7444 -82.6417 356° North 377 434 18,700 1,400 Climbing Jacksonville Center
Wed 06:29:27 PM 28.8614 -82.6483 357° North 397 457 20,100 1,450 Climbing Jacksonville Center
Wed 06:30:27 PM 28.9783 -82.6600 355° North 408 470 21,600 1,450 Climbing Jacksonville Center
Wed 06:31:27 PM 29.1036 -82.6669 357° North 426 490 23,000 1,400 Climbing Jacksonville Center
Wed 06:32:27 PM 29.2244 -82.6783 355° North 437 503 24,400 2,100 Climbing Jacksonville Center
Wed 06:33:27 PM 29.3456 -82.6878 356° North 437 503 27,200 2,231 Climbing Jacksonville Center
Wed 06:34:28 PM 29.4542 -82.7161 347° North 421 484 28,900 1,250 Climbing Jacksonville Center
Wed 06:35:27 PM 29.5775 -82.7589 343° North 413 475 29,700 1,000 Climbing Jacksonville Center
Wed 06:36:28 PM 29.6944 -82.7897 347° North 425 489 30,900 893 Climbing Jacksonville Center
Wed 06:37:28 PM 29.8092 -82.8231 346° North 420 483 31,500 550 Climbing Jacksonville Center
Wed 06:38:28 PM 29.9325 -82.8589 346° North 434 499 32,000 700 Climbing Jacksonville Center
Wed 06:39:28 PM 30.0578 -82.8517 North 439 505 32,900 1,059 Climbing Jacksonville Center
Wed 06:40:27 PM 30.1767 -82.7964 22° Northeast 448 516 34,100 1,008 Climbing Jacksonville Center
Wed 06:41:27 PM 30.2978 -82.7411 22° Northeast 448 516 34,900 800 Climbing Jacksonville Center
Wed 06:42:27 PM 30.4167 -82.6878 21° North 454 522 35,700 793 Climbing Jacksonville Center
Wed 06:43:28 PM 30.5336 -82.6369 21° North 454 522 36,500 600 Climbing Jacksonville Center
Wed 06:44:27 PM 30.6544 -82.5811 22° Northeast 449 517 36,900 252 Climbing Jacksonville Center
Wed 06:45:27 PM 30.7756 -82.5275 21° North 454 522 37,000  Climbing Jacksonville Center
Wed 06:46:27 PM 30.8964 -82.4714 22° Northeast 454 522 36,900  Descending Jacksonville Center
Wed 06:47:27 PM 31.0194 -82.4150 21° North 461 531 37,000  Climbing Jacksonville Center
Wed 06:48:27 PM 31.1444 -82.3561 22° Northeast 472 543 36,900  Descending Jacksonville Center
Wed 06:49:27 PM 31.2694 -82.2994 21° North 472 543 37,000 50 Climbing Jacksonville Center
Wed 06:50:27 PM 31.3797 -82.2500 21° North 467 537 37,000 -50 Level Jacksonville Center
Wed 06:51:27 PM 31.5028 -82.1958 21° North 467 537 36,900 -50 Descending Jacksonville Center
Wed 06:52:27 PM 31.6236 -82.1361 23° Northeast 467 537 36,900 50 Level Jacksonville Center
Wed 06:53:27 PM 31.7589 -82.0692 23° Northeast 474 545 37,000 50 Climbing Jacksonville Center
Wed 06:54:27 PM 31.8794 -82.0142 21° North 468 539 37,000  Level Jacksonville Center
Wed 06:55:27 PM 31.9919 -81.9617 22° Northeast 473 544 37,000  Level Jacksonville Center
Wed 06:56:27 PM 32.1272 -81.8967 22° Northeast 473 544 37,000  Level Jacksonville Center
Wed 06:57:27 PM 32.2497 -81.8411 21° North 473 544 37,000  Level Jacksonville Center
Wed 06:58:27 PM 32.3622 -81.7858 23° Northeast 478 550 37,000  Level Jacksonville Center
Wed 06:59:27 PM 32.4972 -81.7225 22° Northeast 478 550 37,000  Level Jacksonville Center
Wed 07:00:27 PM 32.6075 -81.6669 23° Northeast 471 542 37,000 -50 Level Jacksonville Center
Wed 07:01:27 PM 32.7278 -81.5986 26° Northeast 477 549 36,900 -50 Descending Jacksonville Center
Wed 07:02:27 PM 32.8417 -81.5128 32° Northeast 477 549 36,900  Level Jacksonville Center
Wed 07:03:27 PM 32.9556 -81.4219 34° Northeast 484 557 36,900 50 Level Jacksonville Center
Wed 07:04:27 PM 33.0692 -81.3308 34° Northeast 489 563 37,000 50 Climbing Jacksonville Center
Wed 07:05:27 PM 33.1786 -81.2397 35° Northeast 489 563 37,000 -50 Level Jacksonville Center
Wed 07:06:27 PM 33.2922 -81.1506 33° Northeast 483 556 36,900  Descending Jacksonville Center
Wed 07:07:27 PM 33.4058 -81.0589 34° Northeast 483 556 37,000 50 Climbing Jacksonville Center
Wed 07:08:27 PM 33.5169 -80.9669 35° Northeast 483 556 37,000 -50 Level Jacksonville Center
Wed 07:09:28 PM 33.6306 -80.8769 33° Northeast 489 563 36,900 -50 Descending Jacksonville Center
Wed 07:10:27 PM 33.7436 -80.7844 34° Northeast 489 563 36,900  Level Jacksonville Center
Wed 07:11:28 PM 33.8569 -80.6917 34° Northeast 489 563 36,900 50 Level Jacksonville Center
Wed 07:12:27 PM 33.9681 -80.6014 34° Northeast 489 563 37,000 50 Climbing Jacksonville Center
Wed 07:13:27 PM 34.0831 -80.5106 33° Northeast 489 563 37,000  Level Jacksonville Center
Wed 07:14:27 PM 34.1961 -80.4147 35° Northeast 489 563 37,000 -50 Level Jacksonville Center
Wed 07:15:27 PM 34.3089 -80.3208 35° Northeast 489 563 36,900 -50 Descending Jacksonville Center
Wed 07:16:27 PM 34.4194 -80.2269 35° Northeast 489 563 36,900 31 Level Jacksonville Center
Wed 07:18:43 PM 34.6614 -80.0233 35° Northeast 492 566 37,000 31 Climbing Washington Center
Wed 07:19:43 PM 34.7842 -79.9211 34° Northeast 492 566 37,000  Level Washington Center
Wed 07:20:43 PM 34.8981 -79.8261 34° Northeast 492 566 37,000  Level Washington Center
Wed 07:21:43 PM 35.0119 -79.7306 34° Northeast 492 566 37,000  Level Washington Center
Wed 07:22:43 PM 35.1239 -79.6347 35° Northeast 492 566 37,000  Level Washington Center
Wed 07:23:43 PM 35.2414 -79.5467 31° Northeast 484 557 37,000  Level Washington Center
Wed 07:24:43 PM 35.3569 -79.4606 31° Northeast 484 557 37,000  Level Washington Center
Wed 07:25:43 PM 35.4786 -79.3772 29° Northeast 493 567 37,000  Level Washington Center
Wed 07:26:43 PM 35.5939 -79.2906 31° Northeast 497 572 37,000  Level Washington Center
Wed 07:27:43 PM 35.7136 -79.2017 31° Northeast 497 572 37,000  Level Washington Center
Wed 07:28:43 PM 35.8350 -79.1150 30° Northeast 497 572 37,000  Level Washington Center
Wed 07:29:43 PM 35.9725 -79.0542 20° North 480 552 37,000  Level Washington Center
Wed 07:30:43 PM 36.1019 -79.0497 North 466 536 37,000 -800 Level Washington Center
Wed 07:31:43 PM 36.2264 -79.0011 17° North 466 536 35,400 -1,750 Descending Washington Center
Wed 07:32:43 PM 36.3356 -78.9028 36° Northeast 461 531 33,500 -2,100 Descending Washington Center
Wed 07:33:43 PM 36.4447 -78.8067 35° Northeast 480 552 31,200 -2,250 Descending Washington Center
Wed 07:34:43 PM 36.5578 -78.7078 35° Northeast 492 566 29,000 -1,200 Descending Washington Center
Wed 07:35:43 PM 36.6669 -78.6086 36° Northeast 492 566 28,800 -500 Descending Washington Center
Wed 07:36:43 PM 36.7714 -78.5089 37° Northeast 476 548 28,000 -850 Descending Washington Center
Wed 07:37:43 PM 36.8694 -78.4244 35° Northeast 455 524 27,100 -500 Descending Washington Center
Wed 07:38:43 PM 36.9675 -78.3369 35° Northeast 429 494 27,000 -50 Descending Washington Center
Wed 07:39:43 PM 37.0633 -78.2494 36° Northeast 424 488 27,000  Level Washington Center
Wed 07:40:43 PM 37.1506 -78.1717 35° Northeast 424 488 27,000  Level Washington Center
Wed 07:41:43 PM 37.2569 -78.0733 36° Northeast 424 488 27,000  Level Washington Center
Wed 07:42:43 PM 37.3653 -77.9803 34° Northeast 440 506 27,000  Level Washington Center
Wed 07:43:43 PM 37.4694 -77.8842 36° Northeast 461 531 27,000  Level Washington Center
Wed 07:44:43 PM 37.5756 -77.7878 36° Northeast 461 531 27,000  Level Washington Center
Wed 07:45:43 PM 37.6836 -77.6911 35° Northeast 461 531 27,000  Level Washington Center
Wed 07:46:43 PM 37.7917 -77.5917 36° Northeast 466 536 27,000  Level Washington Center
Wed 07:47:43 PM 37.8997 -77.4917 36° Northeast 466 536 27,000  Level Washington Center
Wed 07:48:43 PM 38.0053 -77.3942 36° Northeast 471 542 27,000 -50 Level Washington Center
Wed 07:49:43 PM 38.1006 -77.3094 35° Northeast 466 536 26,900 -550 Descending Washington Center
Wed 07:50:43 PM 38.2061 -77.2114 36° Northeast 466 536 25,900 -950 Descending Washington Center
Wed 07:51:43 PM 38.3094 -77.1158 36° Northeast 466 536 25,000 -450 Descending Washington Center
Wed 07:52:43 PM 38.4108 -77.0200 37° Northeast 454 522 25,000  Level Washington Center
Wed 07:53:43 PM 38.5139 -76.9264 35° Northeast 454 522 25,000  Level Washington Center
Wed 07:54:43 PM 38.6278 -76.8167 37° Northeast 459 528 25,000  Level Washington Center
Wed 07:55:43 PM 38.7289 -76.7172 37° Northeast 459 528 25,000  Level Washington Center
Wed 07:56:43 PM 38.8236 -76.6069 42° Northeast 459 528 25,000  Level Washington Center
Wed 07:57:43 PM 38.9183 -76.4986 42° Northeast 459 528 25,000  Level Washington Center
Wed 07:58:43 PM 39.0150 -76.3825 43° Northeast 459 528 25,000  Level Washington Center
Wed 07:59:43 PM 39.1114 -76.2739 41° Northeast 459 528 25,000  Level Washington Center
Wed 08:00:43 PM 39.1869 -76.1833 43° Northeast 459 528 25,000  Level Washington Center
Wed 08:01:43 PM 39.3064 -76.0503 41° Northeast 465 535 25,000 -50 Level Washington Center
Wed 08:02:43 PM 39.4025 -75.9381 42° Northeast 465 535 24,900 -550 Descending Washington Center
Wed 08:03:43 PM 39.4967 -75.8228 43° Northeast 465 535 23,900 -1,500 Descending Washington Center
Wed 08:04:43 PM 39.5928 -75.7128 41° Northeast 465 535 21,900 -2,150 Descending Washington Center
Wed 08:05:43 PM 39.6844 -75.6022 43° Northeast 459 528 19,600 -2,050 Descending Washington Center
Wed 08:06:43 PM 39.7739 -75.4942 43° Northeast 449 517 17,800 -1,950 Descending Washington Center
Wed 08:07:43 PM 39.8614 -75.3889 43° Northeast 436 502 15,700 -2,350 Descending Washington Center
Wed 08:08:43 PM 39.9464 -75.2856 43° Northeast 422 486 13,100 -1,400 Descending Washington Center
Wed 08:09:43 PM 40.0233 -75.1906 43° Northeast 400 460 12,900 -100 Descending Washington Center
Wed 08:10:43 PM 40.0897 -75.1114 42° Northeast 358 412 12,900 -100 Level Washington Center
Wed 08:11:43 PM 40.1558 -75.0322 42° Northeast 328 377 12,700 -700 Descending Washington Center
Wed 08:12:43 PM 40.2181 -74.9503 45° Northeast 313 360 11,500 -900 Descending Washington Center
Wed 08:13:43 PM 40.2697 -74.8628 52° Northeast 308 354 10,900 -300 Descending Washington Center
Wed 08:14:43 PM 40.2256 -74.8036 134° Southeast 184 212 10,900  Level Washington Center
Wed 08:15:43 PM 40.1778 -74.8367 208° Southwest 116 133 10,900  Level Washington Center
Wed 08:16:43 PM 40.1386 -74.8886 225° Southwest 137 158 10,900  Level Washington Center
Wed 08:17:43 PM 40.1139 -74.9514 243° Southwest 184 212 10,900  Level Washington Center
Wed 08:18:43 PM 40.1558 -75.0078 314° West 167 192 10,900  Level Washington Center
Wed 08:19:43 PM 40.2264 -74.9475 33° Northeast 171 197 10,900  Level Washington Center
Wed 08:20:43 PM 40.2694 -74.8547 59° Northeast 223 257 10,900  Level Washington Center
Wed 08:21:43 PM 40.2172 -74.8064 145° Southeast 161 185 10,900  Level Washington Center
Wed 08:22:43 PM 40.1717 -74.8450 213° Southwest 115 132 10,900  Level Washington Center
Wed 08:23:43 PM 40.1344 -74.8967 227° Southwest 148 170 10,900  Level Washington Center
Wed 08:24:43 PM 40.1056 -74.9567 238° Southwest 179 206 10,900  Level Washington Center
Wed 08:25:43 PM 40.0767 -75.0194 239° Southwest 201 231 10,900  Level Washington Center
Wed 08:26:43 PM 40.0519 -75.0819 243° Southwest 201 231 10,900  Level Washington Center
Wed 08:27:43 PM 40.0439 -75.1525 262° West 201 231 10,900  Level Washington Center
Wed 08:28:43 PM 40.1067 -75.1847 339° North 176 203 10,900  Level Washington Center
Wed 08:29:43 PM 40.1625 -75.0919 52° Northeast 196 226 10,900 -244 Level Washington Center
Wed 08:30:46 PM 40.2167 -74.9833 57° Northeast 357 411 10,400 -927 Descending New York TRACON
Wed 08:31:46 PM 40.2667 -74.8833 57° Northeast 343 395 9,000 -1,700 Descending New York TRACON
Wed 08:32:46 PM 40.3333 -74.8000 44° Northeast 327 376 7,000 -1,381 Descending New York TRACON
Wed 08:33:52 PM 40.4000 -74.6833 53° Northeast 309 356 6,100 -450 Descending New York TRACON
Wed 08:34:46 PM 40.4333 -74.6167 57° Northeast 280 322 6,100  Level New York TRACON
Wed 08:35:46 PM 40.4667 -74.5167 66° East 284 327 6,100  Level New York TRACON
Wed 08:36:46 PM 40.5333 -74.4833 21° North 252 290 6,100  Level New York TRACON
Wed 08:37:46 PM 40.6000 -74.4833 360° North 247 284 6,100  Level New York TRACON
Wed 08:38:46 PM 40.6667 -74.4833 360° North 248 285 6,100  Level New York TRACON

Login

Don't have an account? Register now (free) for customized features, flight alerts, and more!